Aérodrome :
LOGIN :

S'inscrire | Disclaimer

   EN    FR    IT 

 










Légende :    VFR   VFR Marginal   IFR   IFR Intensif   IFR Très Intensif
Visi : 
Plafond : 
>= 8 km
>= 3000ft
5 à 8 km
1000 à 3000 ft
1500m à 5 km
500 à 1000 ft
800 à 1500m
200 à 500 ft
< 800m
< 200 ft
Symboles :   Orages  Brouillard  Fortes neiges  Fortes précipitations  Vent > 20 kt
SIGMETs :   Divers  Orages  Givrage  Turbulence  Onde Orograph.  Cendres Volcan.






- Altitude de l'aérodrome : 751 ft
- Code IATA : ENC


LFSN - Nancy Essey

DERNIER METAR :
  • 231130Z AUTO 20005KT 170V230 9999 -DZ OVC013 15/14 Q1013

METARs EXPIRÉS :
  • 231100Z AUTO 18005KT 9999 OVC011 15/13 Q1013
  • 231030Z AUTO 21006KT 170V260 9999 BKN010 BKN015 OVC066 15/13 Q1013
  • 231000Z AUTO 18006KT 140V230 9999 BKN009 OVC014 15/13 Q1013
  • 230930Z AUTO 18008KT 140V210 9999 BKN009 BKN088 OVC130 15/13 Q1013
  • 230900Z AUTO 16005KT 130V200 9999 BKN008 BKN019 BKN072 15/13 Q1013

Prévision TAF périmée.



MET'MAP, la Météo Aéronautique d'un coup d'oeil ! - Copyright ORBIFLY Décembre 2007 - Disclaimer

ORBIFLY MET'MAP TEAM :

Programmation & Développement : Alexandra Zaïnal
Sur une idée originale de : Baudouin d'Aumeries
Assistance à la programmation : Marc-Olivier Méhu
Soutien technique & logistique : Manuel Goepfert

Contact : metmap@orbifly.com




SOURCES & CREDITS :

   NOAA